createdAt,value
2018-02-21T00:04:13.168Z,87.18
2018-02-21T00:06:39.731Z,91.00
2018-02-21T00:09:06.471Z,96.03
2018-02-21T00:11:33.027Z,94.53
2018-02-21T00:13:59.734Z,92.22
2018-02-21T00:16:26.326Z,90.38
2018-02-21T00:18:53.730Z,87.43
2018-02-21T00:21:20.279Z,88.85
2018-02-21T00:23:47.601Z,105.25
2018-02-21T00:26:14.471Z,97.37
2018-02-21T00:28:41.043Z,91.75
2018-02-21T00:31:08.319Z,97.32
2018-02-21T00:33:34.878Z,87.18
2018-02-21T00:36:01.490Z,92.10
2018-02-21T00:38:28.029Z,89.85
2018-02-21T00:40:54.609Z,81.63
2018-02-21T00:43:21.178Z,87.30
2018-02-21T00:45:48.475Z,88.78
2018-02-21T00:48:15.114Z,88.32
2018-02-21T00:50:41.679Z,84.80
2018-02-21T00:53:08.271Z,83.68
2018-02-21T00:55:34.846Z,88.50
2018-02-21T00:58:01.434Z,96.22
2018-02-21T01:00:28.036Z,93.95
2018-02-21T01:02:54.594Z,90.90
2018-02-21T01:05:22.069Z,94.28
2018-02-21T01:07:48.632Z,90.60
2018-02-21T01:10:15.197Z,94.50
2018-02-21T01:12:41.778Z,95.03
2018-02-21T01:15:08.362Z,93.80
2018-02-21T01:17:35.738Z,99.85
2018-02-21T01:20:03.053Z,94.35
2018-02-21T01:22:29.902Z,101.32
2018-02-21T01:24:56.435Z,91.60
2018-02-21T01:27:23.068Z,89.87
2018-02-21T01:29:49.643Z,94.35
2018-02-21T01:32:16.951Z,90.12
2018-02-21T01:34:43.515Z,89.75
2018-02-21T01:37:10.092Z,88.40
2018-02-21T01:39:36.652Z,94.65
2018-02-21T01:42:03.201Z,94.40
2018-02-21T01:44:29.790Z,101.18
2018-02-21T01:46:57.111Z,107.03
2018-02-21T01:49:23.719Z,98.55
2018-02-21T01:51:50.274Z,92.55
2018-02-21T01:54:16.847Z,113.62
2018-02-21T01:56:43.405Z,97.62
2018-02-21T01:59:09.946Z,92.10
2018-02-21T02:01:36.555Z,92.95
2018-02-21T02:04:03.271Z,95.20
2018-02-21T02:06:30.606Z,94.75
2018-02-21T02:08:57.166Z,96.45
2018-02-21T02:11:24.066Z,92.70
2018-02-21T02:13:50.646Z,100.12
2018-02-21T02:16:17.227Z,97.47
2018-02-21T02:18:43.797Z,97.65
2018-02-21T02:21:10.355Z,95.82
2018-02-21T02:23:37.966Z,93.22
2018-02-21T02:26:04.525Z,89.32
2018-02-21T02:28:31.082Z,93.72
2018-02-21T02:30:58.420Z,95.38
2018-02-21T02:33:25.702Z,94.35
2018-02-21T02:35:53.079Z,96.20
2018-02-21T02:38:38.258Z,92.53
2018-02-21T02:41:04.835Z,90.38
2018-02-21T02:43:31.463Z,94.20
2018-02-21T02:45:58.026Z,94.28
2018-02-21T02:48:24.680Z,91.55
2018-02-21T02:50:52.146Z,95.87
2018-02-21T02:53:19.465Z,97.53
2018-02-21T02:55:46.027Z,94.25
2018-02-21T02:58:13.343Z,99.80
2018-02-21T03:00:39.918Z,94.32
2018-02-21T03:03:07.423Z,104.43
2018-02-21T03:05:33.980Z,100.05
2018-02-21T03:08:00.549Z,97.57
2018-02-21T03:10:27.878Z,98.45
2018-02-21T03:12:54.440Z,96.07
2018-02-21T03:15:21.011Z,96.32
2018-02-21T03:17:47.599Z,87.60
2018-02-21T03:20:14.902Z,104.93
2018-02-21T03:22:41.593Z,105.80
2018-02-21T03:25:09.169Z,96.30
2018-02-21T03:27:36.444Z,93.10
2018-02-21T03:30:03.035Z,99.30
2018-02-21T03:32:29.622Z,93.85
2018-02-21T03:34:56.251Z,92.40
2018-02-21T03:37:22.789Z,92.62
2018-02-21T03:39:49.374Z,92.32
2018-02-21T03:42:16.274Z,103.28
2018-02-21T03:44:42.850Z,93.40
2018-02-21T03:47:09.404Z,100.78
2018-02-21T03:49:36.014Z,98.75
2018-02-21T03:52:02.595Z,99.35
2018-02-21T03:54:29.239Z,93.07
2018-02-21T03:56:55.826Z,97.28
2018-02-21T03:59:22.402Z,95.05
2018-02-21T04:01:49.687Z,89.97
2018-02-21T04:04:16.257Z,87.15
2018-02-21T04:06:43.166Z,88.72
2018-02-21T04:09:09.735Z,88.25
2018-02-21T04:11:36.341Z,85.62
2018-02-21T04:14:02.890Z,80.35
2018-02-21T04:16:29.487Z,86.93
2018-02-21T04:19:00.037Z,83.20
2018-02-21T04:21:26.624Z,83.53
2018-02-21T04:23:53.162Z,82.15
2018-02-21T04:26:20.688Z,85.65
2018-02-21T04:28:47.246Z,81.90
2018-02-21T04:31:13.812Z,86.40
2018-02-21T04:33:41.130Z,84.18
2018-02-21T04:36:07.687Z,83.43
2018-02-21T04:38:36.118Z,84.10
2018-02-21T04:41:02.732Z,80.40
2018-02-21T04:43:29.289Z,88.35
2018-02-21T04:45:55.874Z,84.72
2018-02-21T04:48:23.175Z,81.22
2018-02-21T04:50:49.750Z,81.57
2018-02-21T04:53:17.104Z,82.72
2018-02-21T04:55:49.783Z,81.87
2018-02-21T05:11:41.998Z,79.35
2018-02-21T05:14:09.363Z,80.85
2018-02-21T05:16:35.938Z,80.35
2018-02-21T05:19:02.538Z,84.22
2018-02-21T05:21:29.270Z,89.60
2018-02-21T05:23:55.834Z,81.20
2018-02-21T05:26:23.178Z,81.12
2018-02-21T05:28:49.979Z,78.80
2018-02-21T05:31:16.549Z,82.80
2018-02-21T05:33:43.091Z,85.05
2018-02-21T05:36:09.705Z,83.37
2018-02-21T05:38:36.308Z,76.75
2018-02-21T05:41:02.950Z,80.60
2018-02-21T05:43:29.518Z,85.85
2018-02-21T05:45:56.131Z,80.68
2018-02-21T05:48:22.657Z,95.10
2018-02-21T05:50:49.207Z,86.32
2018-02-21T05:53:15.799Z,83.35
2018-02-21T05:55:43.090Z,84.68
2018-02-21T05:58:10.499Z,90.22
2018-02-21T06:00:37.825Z,82.65
2018-02-21T06:03:04.362Z,87.82
2018-02-21T06:05:31.722Z,82.50
2018-02-21T06:07:58.347Z,79.03
2018-02-21T06:10:24.909Z,82.22
2018-02-21T06:12:52.339Z,81.47
2018-02-21T06:15:18.894Z,83.75
2018-02-21T06:17:46.205Z,84.20
2018-02-21T06:20:13.038Z,79.65
2018-02-21T06:22:39.624Z,83.45
2018-02-21T06:25:06.949Z,85.10
2018-02-21T06:27:33.585Z,59.63
2018-02-21T06:30:00.132Z,45.97
2018-02-21T06:32:26.706Z,55.35
2018-02-21T06:34:53.262Z,50.67
2018-02-21T06:37:19.854Z,36.15
2018-02-21T06:39:47.270Z,28.27
2018-02-21T06:42:13.842Z,52.38
2018-02-21T06:44:41.154Z,37.60
2018-02-21T06:47:07.726Z,30.20
2018-02-21T06:49:34.302Z,40.35
2018-02-21T06:52:00.846Z,54.55
2018-02-21T06:54:27.441Z,46.30
2018-02-21T06:56:53.989Z,40.90
2018-02-21T06:59:20.788Z,55.17
2018-02-21T07:01:47.398Z,55.33
2018-02-21T07:04:14.673Z,49.80
2018-02-21T07:06:41.242Z,55.58
2018-02-21T07:09:08.537Z,28.00
2018-02-21T07:11:35.120Z,35.65
2018-02-21T07:14:01.678Z,30.10
2018-02-21T07:16:28.295Z,25.65
2018-02-21T07:18:54.887Z,30.20
2018-02-21T07:21:21.457Z,32.47
2018-02-21T07:23:48.134Z,30.75
2018-02-21T07:26:15.416Z,54.90
2018-02-21T07:28:41.968Z,50.75
2018-02-21T07:31:08.529Z,27.15
2018-02-21T07:33:35.076Z,30.15
2018-02-21T07:36:01.979Z,31.05
2018-02-21T07:38:28.558Z,31.08
2018-02-21T07:40:55.147Z,33.05
2018-02-21T07:43:21.738Z,29.10
2018-02-21T07:45:49.051Z,30.05
2018-02-21T07:48:15.626Z,28.65
2018-02-21T07:50:42.199Z,29.85
2018-02-21T07:53:09.071Z,23.77
2018-02-21T07:55:35.643Z,28.52
2018-02-21T07:58:03.643Z,29.12
2018-02-21T08:00:30.210Z,28.15
2018-02-21T08:02:56.813Z,28.25
2018-02-21T08:05:23.376Z,29.02
2018-02-21T08:07:49.937Z,29.83
2018-02-21T08:10:16.514Z,28.42
2018-02-21T08:12:43.223Z,26.48
2018-02-21T08:15:10.546Z,30.50
2018-02-21T08:17:37.140Z,28.30
2018-02-21T08:20:05.438Z,38.92
2018-02-21T08:22:32.063Z,42.30
2018-02-21T08:24:58.627Z,82.15
2018-02-21T08:27:25.164Z,29.50
2018-02-21T08:29:51.742Z,52.42
2018-02-21T08:32:18.298Z,55.38
2018-02-21T08:34:44.940Z,60.25
2018-02-21T08:37:12.322Z,58.85
2018-02-21T08:39:38.927Z,58.53
2018-02-21T08:42:05.502Z,59.60
2018-02-21T08:44:32.082Z,58.83
2018-02-21T08:46:59.408Z,59.58
2018-02-21T08:49:25.986Z,59.42
2018-02-21T08:51:53.303Z,64.07
2018-02-21T08:54:19.846Z,58.55
2018-02-21T08:56:46.451Z,60.00
2018-02-21T08:59:12.998Z,65.05
2018-02-21T09:01:39.550Z,66.40
2018-02-21T09:04:06.138Z,66.85
2018-02-21T09:06:33.045Z,67.35
2018-02-21T09:09:00.355Z,57.75
2018-02-21T09:11:26.906Z,65.68
2018-02-21T09:13:53.494Z,61.95
2018-02-21T09:16:20.783Z,60.38
2018-02-21T09:18:47.366Z,61.17
2018-02-21T09:21:14.679Z,61.63
2018-02-21T09:23:41.247Z,64.53
2018-02-21T09:26:08.202Z,63.55
2018-02-21T09:28:35.524Z,63.22
2018-02-21T09:31:02.666Z,65.82
2018-02-21T09:33:29.975Z,68.50
2018-02-21T09:35:56.598Z,63.13
2018-02-21T09:38:23.924Z,66.00
2018-02-21T09:40:50.500Z,62.88
2018-02-21T09:43:17.079Z,65.45
2018-02-21T09:45:43.742Z,68.25
2018-02-21T09:48:10.317Z,68.20
2018-02-21T09:50:36.881Z,66.53
2018-02-21T09:53:03.471Z,72.25
2018-02-21T09:55:30.058Z,69.70
2018-02-21T09:57:56.630Z,70.75
2018-02-21T10:00:23.948Z,70.75
2018-02-21T10:02:50.527Z,71.65
2018-02-21T10:05:17.121Z,75.80
2018-02-21T10:07:43.740Z,73.60
2018-02-21T10:10:10.552Z,71.57
2018-02-21T10:12:37.908Z,71.65
2018-02-21T10:15:05.256Z,73.07
2018-02-21T10:17:32.621Z,58.15
2018-02-21T10:19:59.919Z,65.90
2018-02-21T10:22:27.276Z,61.45
2018-02-21T10:24:53.918Z,58.42
2018-02-21T10:27:20.481Z,57.28
2018-02-21T10:29:47.072Z,56.95
2018-02-21T10:32:14.376Z,64.68
2018-02-21T10:34:40.967Z,66.03
2018-02-21T10:37:07.603Z,65.75
2018-02-21T10:39:34.183Z,64.47
2018-02-21T10:42:01.315Z,68.07
2018-02-21T10:44:28.639Z,76.20
2018-02-21T10:46:55.210Z,70.03
2018-02-21T10:49:22.045Z,70.07
2018-02-21T10:51:48.616Z,75.47
2018-02-21T10:54:15.908Z,77.20
2018-02-21T10:56:42.479Z,74.90
2018-02-21T10:59:09.162Z,64.53
2018-02-21T11:01:35.842Z,59.55
2018-02-21T11:04:03.362Z,54.00
2018-02-21T11:06:30.937Z,58.35
2018-02-21T11:08:57.556Z,58.92
2018-02-21T11:11:24.137Z,56.53
2018-02-21T11:13:50.753Z,60.25
2018-02-21T11:16:17.338Z,70.72
2018-02-21T11:18:44.954Z,72.35
2018-02-21T11:21:12.257Z,75.32
2018-02-21T11:23:38.908Z,76.07
2018-02-21T11:26:06.242Z,79.05
2018-02-21T11:28:32.818Z,76.43
2018-02-21T11:30:59.643Z,75.60
2018-02-21T11:33:26.264Z,77.10
2018-02-21T11:35:52.851Z,79.28
2018-02-21T11:38:19.422Z,81.57
2018-02-21T11:40:45.974Z,79.00
2018-02-21T11:43:13.329Z,78.55
2018-02-21T11:45:39.907Z,85.25
2018-02-21T11:48:06.530Z,64.22
2018-02-21T11:50:33.505Z,67.40
2018-02-21T11:53:00.789Z,67.85
2018-02-21T11:55:28.086Z,71.00
2018-02-21T11:57:54.657Z,68.82
2018-02-21T12:00:21.240Z,67.18
2018-02-21T12:02:47.942Z,49.08
2018-02-21T12:05:14.503Z,55.95
2018-02-21T12:07:41.946Z,41.37
2018-02-21T12:10:09.272Z,49.88
2018-02-21T12:12:35.825Z,61.50
2018-02-21T12:15:02.496Z,66.70
2018-02-21T12:17:29.093Z,78.22
2018-02-21T12:19:55.671Z,80.72
2018-02-21T12:22:22.261Z,74.05
2018-02-21T12:24:48.857Z,74.43
2018-02-21T12:27:15.466Z,53.58
2018-02-21T12:29:42.795Z,62.55
2018-02-21T12:32:10.178Z,62.25
2018-02-21T12:34:36.776Z,58.22
2018-02-21T12:37:04.096Z,66.55
2018-02-21T12:39:31.615Z,60.20
2018-02-21T12:41:58.209Z,44.97
2018-02-21T12:44:24.820Z,48.15
2018-02-21T12:46:51.411Z,44.85
2018-02-21T12:49:18.003Z,30.95
2018-02-21T12:51:44.599Z,34.20
2018-02-21T12:54:11.943Z,37.20
2018-02-21T12:56:38.512Z,31.75
2018-02-21T12:59:05.072Z,35.50
2018-02-21T13:01:31.684Z,39.50
2018-02-21T13:03:58.973Z,48.87
2018-02-21T13:06:25.533Z,73.62
2018-02-21T13:08:52.091Z,75.35
2018-02-21T13:11:19.441Z,74.00
2018-02-21T13:13:46.821Z,77.05
2018-02-21T13:16:13.482Z,84.18
2018-02-21T13:18:40.861Z,76.65
2018-02-21T13:21:07.478Z,78.00
2018-02-21T13:23:34.059Z,79.32
2018-02-21T13:26:01.385Z,76.68
2018-02-21T13:28:28.719Z,65.30
2018-02-21T13:30:55.338Z,65.87
2018-02-21T13:33:21.934Z,59.20
2018-02-21T13:35:48.509Z,62.95
2018-02-21T13:38:15.045Z,65.75
2018-02-21T13:40:41.906Z,63.83
2018-02-21T13:43:08.449Z,66.85
2018-02-21T13:45:35.776Z,66.03
2018-02-21T13:48:02.350Z,70.97
2018-02-21T13:50:28.940Z,67.60
2018-02-21T13:52:55.618Z,63.55
2018-02-21T13:55:22.219Z,71.47
2018-02-21T13:57:48.794Z,69.68
2018-02-21T14:00:15.388Z,58.95
2018-02-21T14:02:41.993Z,42.58
2018-02-21T14:05:08.626Z,50.12
2018-02-21T14:07:35.228Z,45.53
2018-02-21T14:10:02.485Z,42.10
2018-02-21T14:12:29.066Z,68.00
2018-02-21T14:14:56.770Z,42.30
2018-02-21T14:17:23.372Z,45.75
2018-02-21T14:19:49.979Z,41.25
2018-02-21T14:22:17.331Z,47.47
2018-02-21T14:24:43.941Z,47.20
2018-02-21T14:27:10.528Z,45.10
2018-02-21T14:29:37.847Z,48.95
2018-02-21T14:32:04.442Z,43.95
2018-02-21T14:34:31.320Z,39.92
2018-02-21T14:36:57.918Z,47.00
2018-02-21T14:39:24.526Z,45.58
2018-02-21T14:41:51.998Z,41.13
2018-02-21T14:44:18.607Z,42.80
2018-02-21T14:46:45.186Z,49.05
2018-02-21T14:49:11.771Z,53.15
2018-02-21T14:51:38.412Z,61.42
2018-02-21T14:54:05.796Z,63.65
2018-02-21T14:56:32.789Z,62.33
2018-02-21T14:58:59.424Z,58.92
2018-02-21T15:01:26.004Z,62.97
2018-02-21T15:03:52.586Z,60.67
2018-02-21T15:06:19.454Z,59.47
2018-02-21T15:08:46.014Z,55.88
2018-02-21T15:11:12.583Z,54.70
2018-02-21T15:13:39.309Z,59.25
2018-02-21T15:16:06.679Z,63.78
2018-02-21T15:18:33.291Z,63.40
2018-02-21T15:20:59.875Z,62.30
2018-02-21T15:23:26.474Z,63.10
2018-02-21T15:25:53.819Z,65.03
2018-02-21T15:28:20.418Z,69.32
2018-02-21T15:30:47.070Z,70.45
2018-02-21T15:33:13.632Z,74.15
2018-02-21T15:35:40.995Z,70.90
2018-02-21T15:38:07.643Z,77.72
2018-02-21T15:40:34.225Z,77.30
2018-02-21T15:43:00.795Z,77.70
2018-02-21T15:45:28.144Z,72.47
2018-02-21T15:47:54.754Z,76.12
2018-02-21T15:50:21.342Z,75.30
2018-02-21T15:52:47.949Z,80.25
2018-02-21T15:55:15.288Z,78.40
2018-02-21T15:57:42.739Z,74.57
2018-02-21T16:00:09.363Z,77.80
2018-02-21T16:02:35.973Z,68.35
2018-02-21T16:05:02.562Z,69.97
2018-02-21T16:07:29.152Z,70.43
2018-02-21T16:09:55.814Z,70.03
2018-02-21T16:12:22.441Z,56.78
2018-02-21T16:14:49.075Z,66.47
2018-02-21T16:17:15.652Z,62.40
2018-02-21T16:19:43.014Z,68.62
2018-02-21T16:22:10.616Z,67.20
2018-02-21T16:24:37.219Z,39.63
2018-02-21T16:27:04.536Z,47.15
2018-02-21T16:29:31.876Z,56.28
2018-02-21T16:31:58.567Z,44.78
2018-02-21T16:34:25.188Z,54.63
2018-02-21T16:36:51.801Z,65.22
2018-02-21T16:39:18.433Z,61.55
2018-02-21T16:41:45.040Z,47.05
2018-02-21T16:44:11.923Z,55.20
2018-02-21T16:59:27.024Z,39.10
2018-02-21T17:01:54.370Z,42.05
2018-02-21T17:04:21.674Z,38.75
2018-02-21T17:06:48.324Z,42.28
2018-02-21T17:09:15.034Z,49.60
2018-02-21T17:11:41.760Z,43.67
2018-02-21T17:14:08.350Z,40.83
2018-02-21T17:16:34.971Z,39.47
2018-02-21T17:19:01.566Z,40.20
2018-02-21T17:21:28.160Z,35.53
2018-02-21T17:23:54.734Z,38.22
2018-02-21T17:26:21.618Z,44.72
2018-02-21T17:28:48.203Z,36.25
2018-02-21T17:31:15.794Z,38.72
2018-02-21T17:33:43.360Z,39.63
2018-02-21T17:36:09.956Z,38.03
2018-02-21T17:38:37.287Z,37.30
2018-02-21T17:41:10.041Z,38.72
2018-02-21T17:43:36.695Z,36.30
2018-02-21T17:46:03.311Z,36.80
2018-02-21T17:48:29.975Z,39.65
2018-02-21T17:50:56.573Z,36.45
2018-02-21T17:53:23.273Z,35.95
2018-02-21T17:55:50.574Z,39.15
2018-02-21T17:58:17.153Z,38.10
2018-02-21T18:00:43.797Z,34.88
2018-02-21T18:03:11.123Z,38.40
2018-02-21T18:05:37.941Z,42.75
2018-02-21T18:08:04.531Z,40.38
2018-02-21T18:10:31.169Z,34.50
2018-02-21T18:12:58.563Z,38.90
2018-02-21T18:15:25.154Z,36.60
2018-02-21T18:17:51.750Z,43.90
2018-02-21T18:20:18.354Z,35.67
2018-02-21T18:22:45.947Z,41.97
2018-02-21T18:25:13.258Z,40.88
2018-02-21T18:27:39.873Z,36.20
2018-02-21T18:30:06.510Z,35.38
2018-02-21T18:32:33.146Z,34.83
2018-02-21T18:34:59.760Z,37.83
2018-02-21T18:37:26.350Z,38.05
2018-02-21T18:39:53.812Z,35.33
2018-02-21T18:42:20.398Z,39.78
2018-02-21T18:44:46.968Z,36.95
2018-02-21T18:47:13.571Z,35.10
2018-02-21T18:49:40.236Z,37.08
2018-02-21T18:52:07.592Z,41.97
2018-02-21T18:54:34.911Z,43.80
2018-02-21T18:57:01.499Z,41.42
2018-02-21T18:59:28.132Z,41.85
2018-02-21T19:01:55.473Z,42.78
2018-02-21T19:04:22.164Z,40.03
2018-02-21T19:06:48.835Z,42.70
2018-02-21T19:09:15.446Z,45.38
2018-02-21T19:11:42.043Z,50.17
2018-02-21T19:14:08.676Z,43.55
2018-02-21T19:16:35.288Z,48.55
2018-02-21T19:19:01.855Z,47.45
2018-02-21T19:21:28.462Z,46.45
2018-02-21T19:23:55.059Z,46.90
2018-02-21T19:26:21.675Z,50.90
2018-02-21T19:28:48.281Z,51.75
2018-02-21T19:31:16.063Z,55.20
2018-02-21T19:33:42.650Z,55.67
2018-02-21T19:36:09.233Z,50.97
2018-02-21T19:38:36.624Z,58.03
2018-02-21T19:41:03.248Z,51.35
2018-02-21T19:43:29.862Z,49.03
2018-02-21T19:45:57.184Z,44.55
2018-02-21T19:48:23.815Z,57.08
2018-02-21T19:50:50.386Z,45.50
2018-02-21T19:53:17.741Z,50.50
2018-02-21T19:55:44.350Z,37.28
2018-02-21T19:58:10.942Z,44.40
2018-02-21T20:00:37.573Z,46.70
2018-02-21T20:03:04.257Z,53.20
2018-02-21T20:05:30.959Z,47.05
2018-02-21T20:07:57.597Z,43.87
2018-02-21T20:10:24.188Z,47.15
2018-02-21T20:12:50.791Z,46.63
2018-02-21T20:15:17.385Z,45.58
2018-02-21T20:17:43.966Z,49.95
2018-02-21T20:20:11.397Z,44.97
2018-02-21T20:22:38.767Z,40.30
2018-02-21T20:25:05.430Z,42.28
2018-02-21T20:27:32.740Z,39.65
2018-02-21T20:29:59.355Z,40.40
2018-02-21T20:32:26.706Z,39.53
2018-02-21T20:34:54.027Z,39.53
2018-02-21T20:37:20.651Z,38.53
2018-02-21T20:39:47.582Z,41.30
2018-02-21T20:42:14.190Z,37.28
2018-02-21T20:44:40.798Z,39.90
2018-02-21T20:47:07.455Z,36.35
2018-02-21T20:49:34.026Z,44.70
2018-02-21T20:52:00.664Z,42.00
2018-02-21T20:54:27.284Z,45.95
2018-02-21T20:56:53.939Z,47.85
2018-02-21T20:59:21.066Z,41.90
2018-02-21T21:01:47.626Z,44.70
2018-02-21T21:04:14.219Z,49.85
2018-02-21T21:06:41.614Z,50.28
2018-02-21T21:09:08.215Z,55.55
2018-02-21T21:11:34.811Z,63.63
2018-02-21T21:14:01.408Z,58.92
2018-02-21T21:16:28.029Z,44.20
2018-02-21T21:18:54.632Z,58.50
2018-02-21T21:21:21.560Z,57.35
2018-02-21T21:23:48.066Z,49.33
2018-02-21T21:26:14.649Z,44.17
2018-02-21T21:28:41.282Z,48.10
2018-02-21T21:31:07.993Z,38.90
2018-02-21T21:33:35.260Z,42.00
2018-02-21T21:36:01.861Z,45.25
2018-02-21T21:38:28.495Z,44.00
2018-02-21T21:40:55.343Z,42.95
2018-02-21T21:43:21.934Z,41.22
2018-02-21T21:45:48.555Z,42.40
2018-02-21T21:48:15.314Z,46.08
2018-02-21T21:50:41.923Z,41.83
2018-02-21T21:53:08.478Z,42.17
2018-02-21T21:55:35.075Z,42.00
2018-02-21T21:58:01.762Z,47.90
2018-02-21T22:00:28.580Z,46.83
2018-02-21T22:02:57.901Z,56.75
2018-02-21T22:05:24.544Z,53.92
2018-02-21T22:07:51.151Z,66.40
2018-02-21T22:10:17.727Z,67.85
2018-02-21T22:12:45.342Z,49.13
2018-02-21T22:15:11.945Z,62.33
2018-02-21T22:17:38.514Z,69.68
2018-02-21T22:20:05.155Z,74.32
2018-02-21T22:22:31.726Z,70.65
2018-02-21T22:24:59.122Z,73.32
2018-02-21T22:27:25.690Z,68.15
2018-02-21T22:29:52.281Z,77.40
2018-02-21T22:32:19.587Z,53.63
2018-02-21T22:34:46.952Z,64.25
2018-02-21T22:37:13.518Z,69.45
2018-02-21T22:39:40.848Z,78.25
2018-02-21T22:42:07.474Z,73.97
2018-02-21T22:44:34.024Z,87.30
2018-02-21T22:47:01.367Z,76.95
2018-02-21T22:49:27.932Z,79.78
2018-02-21T22:51:54.582Z,78.95
2018-02-21T22:54:21.870Z,74.82
2018-02-21T22:56:48.478Z,74.00
2018-02-21T22:59:15.037Z,70.15
2018-02-21T23:01:41.643Z,65.93
2018-02-21T23:04:08.225Z,69.40
2018-02-21T23:06:34.810Z,73.70
2018-02-21T23:09:02.230Z,70.15
2018-02-21T23:11:29.565Z,66.22
2018-02-21T23:13:56.168Z,55.25
2018-02-21T23:16:22.763Z,61.88
2018-02-21T23:18:50.147Z,64.57
2018-02-21T23:21:17.463Z,57.55
2018-02-21T23:23:44.115Z,50.42
2018-02-21T23:26:10.687Z,64.32
2018-02-21T23:28:37.278Z,52.72
2018-02-21T23:31:04.543Z,49.45
2018-02-21T23:33:31.125Z,60.00
2018-02-21T23:35:57.702Z,47.05
2018-02-21T23:38:24.274Z,50.70
2018-02-21T23:40:51.161Z,55.35
2018-02-21T23:43:17.731Z,53.90
2018-02-21T23:45:45.070Z,54.05
2018-02-21T23:48:11.664Z,57.90
2018-02-21T23:50:38.234Z,54.50
2018-02-21T23:53:05.670Z,50.10
2018-02-21T23:55:32.267Z,55.30
2018-02-21T23:57:59.666Z,63.20
